sensor_id;sensor_type;location;lat;lon;timestamp;P1;durP1;ratioP1;P2;durP2;ratioP2
66575;SDS011;53428;47.686;16.584;2024-01-16T00:02:04;3.72;;;1.50;;
66575;SDS011;53428;47.686;16.584;2024-01-16T00:07:04;2.60;;;1.63;;
66575;SDS011;53428;47.686;16.584;2024-01-16T00:12:03;2.53;;;1.65;;
66575;SDS011;53428;47.686;16.584;2024-01-16T00:17:03;1.70;;;1.60;;
66575;SDS011;53428;47.686;16.584;2024-01-16T00:22:02;1.77;;;1.60;;
66575;SDS011;53428;47.686;16.584;2024-01-16T00:27:03;4.00;;;2.28;;
66575;SDS011;53428;47.686;16.584;2024-01-16T00:32:03;2.03;;;1.23;;
66575;SDS011;53428;47.686;16.584;2024-01-16T00:37:02;2.55;;;1.98;;
66575;SDS011;53428;47.686;16.584;2024-01-16T00:42:02;3.03;;;1.67;;
66575;SDS011;53428;47.686;16.584;2024-01-16T00:47:01;3.50;;;2.08;;
66575;SDS011;53428;47.686;16.584;2024-01-16T00:52:01;3.17;;;2.30;;
66575;SDS011;53428;47.686;16.584;2024-01-16T00:57:00;3.92;;;1.83;;
66575;SDS011;53428;47.686;16.584;2024-01-16T01:01:59;2.80;;;2.15;;
66575;SDS011;53428;47.686;16.584;2024-01-16T01:06:59;4.70;;;1.88;;
66575;SDS011;53428;47.686;16.584;2024-01-16T01:11:58;3.13;;;1.92;;
66575;SDS011;53428;47.686;16.584;2024-01-16T01:16:57;5.30;;;2.20;;
66575;SDS011;53428;47.686;16.584;2024-01-16T01:21:57;3.45;;;2.15;;
66575;SDS011;53428;47.686;16.584;2024-01-16T01:26:56;5.05;;;2.78;;
66575;SDS011;53428;47.686;16.584;2024-01-16T01:31:56;2.33;;;2.03;;
66575;SDS011;53428;47.686;16.584;2024-01-16T01:36:56;3.88;;;2.15;;
66575;SDS011;53428;47.686;16.584;2024-01-16T01:41:56;4.38;;;1.80;;
66575;SDS011;53428;47.686;16.584;2024-01-16T01:46:56;2.30;;;1.50;;
66575;SDS011;53428;47.686;16.584;2024-01-16T01:51:55;3.05;;;2.30;;
66575;SDS011;53428;47.686;16.584;2024-01-16T01:56:54;4.60;;;1.80;;
66575;SDS011;53428;47.686;16.584;2024-01-16T02:01:54;4.20;;;1.73;;
66575;SDS011;53428;47.686;16.584;2024-01-16T02:07:00;1.52;;;1.02;;
66575;SDS011;53428;47.686;16.584;2024-01-16T02:16:58;1.50;;;1.00;;
66575;SDS011;53428;47.686;16.584;2024-01-16T02:21:59;1.92;;;0.95;;
66575;SDS011;53428;47.686;16.584;2024-01-16T02:27:00;2.42;;;1.13;;
66575;SDS011;53428;47.686;16.584;2024-01-16T02:31:59;2.97;;;1.10;;
66575;SDS011;53428;47.686;16.584;2024-01-16T02:36:58;4.20;;;1.42;;
66575;SDS011;53428;47.686;16.584;2024-01-16T02:41:57;3.22;;;1.65;;
66575;SDS011;53428;47.686;16.584;2024-01-16T02:46:57;2.28;;;1.38;;
66575;SDS011;53428;47.686;16.584;2024-01-16T02:51:56;2.10;;;1.20;;
66575;SDS011;53428;47.686;16.584;2024-01-16T02:56:55;1.98;;;1.23;;
66575;SDS011;53428;47.686;16.584;2024-01-16T03:01:55;2.75;;;0.95;;
66575;SDS011;53428;47.686;16.584;2024-01-16T03:06:54;2.10;;;1.55;;
66575;SDS011;53428;47.686;16.584;2024-01-16T03:11:53;2.03;;;1.00;;
66575;SDS011;53428;47.686;16.584;2024-01-16T03:16:53;3.15;;;1.17;;
66575;SDS011;53428;47.686;16.584;2024-01-16T03:21:52;2.25;;;1.27;;
66575;SDS011;53428;47.686;16.584;2024-01-16T03:26:52;5.88;;;0.80;;
66575;SDS011;53428;47.686;16.584;2024-01-16T03:31:52;1.10;;;1.00;;
66575;SDS011;53428;47.686;16.584;2024-01-16T03:36:52;1.20;;;1.10;;
66575;SDS011;53428;47.686;16.584;2024-01-16T03:41:51;2.25;;;0.98;;
66575;SDS011;53428;47.686;16.584;2024-01-16T03:46:51;2.67;;;0.75;;
66575;SDS011;53428;47.686;16.584;2024-01-16T03:51:50;0.65;;;0.65;;
66575;SDS011;53428;47.686;16.584;2024-01-16T03:56:50;1.85;;;1.10;;
66575;SDS011;53428;47.686;16.584;2024-01-16T04:01:49;1.52;;;0.70;;
66575;SDS011;53428;47.686;16.584;2024-01-16T04:06:49;0.68;;;0.68;;
66575;SDS011;53428;47.686;16.584;2024-01-16T04:11:51;5.00;;;1.60;;
66575;SDS011;53428;47.686;16.584;2024-01-16T04:16:50;4.20;;;1.83;;
66575;SDS011;53428;47.686;16.584;2024-01-16T04:21:50;1.27;;;1.08;;
66575;SDS011;53428;47.686;16.584;2024-01-16T04:26:49;3.08;;;0.95;;
66575;SDS011;53428;47.686;16.584;2024-01-16T04:31:49;2.80;;;1.13;;
66575;SDS011;53428;47.686;16.584;2024-01-16T04:36:48;1.48;;;1.38;;
66575;SDS011;53428;47.686;16.584;2024-01-16T04:41:48;1.90;;;0.82;;
66575;SDS011;53428;47.686;16.584;2024-01-16T04:46:50;1.55;;;0.98;;
66575;SDS011;53428;47.686;16.584;2024-01-16T04:51:50;3.70;;;1.63;;
66575;SDS011;53428;47.686;16.584;2024-01-16T04:57:01;2.65;;;1.83;;
66575;SDS011;53428;47.686;16.584;2024-01-16T05:02:00;2.10;;;0.93;;
66575;SDS011;53428;47.686;16.584;2024-01-16T05:06:59;2.70;;;1.13;;
66575;SDS011;53428;47.686;16.584;2024-01-16T05:11:59;1.73;;;1.33;;
66575;SDS011;53428;47.686;16.584;2024-01-16T05:16:58;2.47;;;0.90;;
66575;SDS011;53428;47.686;16.584;2024-01-16T05:21:58;3.05;;;1.30;;
66575;SDS011;53428;47.686;16.584;2024-01-16T05:26:57;5.95;;;1.58;;
66575;SDS011;53428;47.686;16.584;2024-01-16T05:31:56;1.10;;;1.05;;
66575;SDS011;53428;47.686;16.584;2024-01-16T05:36:56;1.25;;;0.93;;
66575;SDS011;53428;47.686;16.584;2024-01-16T05:41:55;2.53;;;1.45;;
66575;SDS011;53428;47.686;16.584;2024-01-16T05:46:54;5.93;;;2.60;;
66575;SDS011;53428;47.686;16.584;2024-01-16T05:51:53;24.10;;;3.28;;
66575;SDS011;53428;47.686;16.584;2024-01-16T05:56:53;4.20;;;1.25;;
66575;SDS011;53428;47.686;16.584;2024-01-16T06:01:52;5.38;;;1.92;;
66575;SDS011;53428;47.686;16.584;2024-01-16T06:06:51;2.42;;;1.40;;
66575;SDS011;53428;47.686;16.584;2024-01-16T06:11:50;3.42;;;0.93;;
66575;SDS011;53428;47.686;16.584;2024-01-16T06:16:50;1.00;;;0.90;;
66575;SDS011;53428;47.686;16.584;2024-01-16T06:21:49;1.65;;;0.85;;
66575;SDS011;53428;47.686;16.584;2024-01-16T06:26:49;3.30;;;1.10;;
66575;SDS011;53428;47.686;16.584;2024-01-16T06:31:48;8.32;;;1.30;;
66575;SDS011;53428;47.686;16.584;2024-01-16T06:36:48;2.17;;;0.85;;
66575;SDS011;53428;47.686;16.584;2024-01-16T06:41:47;9.85;;;1.63;;
66575;SDS011;53428;47.686;16.584;2024-01-16T06:46:46;5.25;;;2.13;;
66575;SDS011;53428;47.686;16.584;2024-01-16T06:51:46;8.82;;;2.15;;
66575;SDS011;53428;47.686;16.584;2024-01-16T06:56:45;4.78;;;1.60;;
66575;SDS011;53428;47.686;16.584;2024-01-16T07:01:45;2.67;;;1.30;;
66575;SDS011;53428;47.686;16.584;2024-01-16T07:06:44;4.80;;;1.70;;
66575;SDS011;53428;47.686;16.584;2024-01-16T07:11:44;2.85;;;1.75;;
66575;SDS011;53428;47.686;16.584;2024-01-16T07:16:43;5.55;;;1.90;;
66575;SDS011;53428;47.686;16.584;2024-01-16T07:21:43;9.85;;;3.03;;
66575;SDS011;53428;47.686;16.584;2024-01-16T07:26:43;1.27;;;0.95;;
66575;SDS011;53428;47.686;16.584;2024-01-16T07:31:42;1.80;;;1.05;;
66575;SDS011;53428;47.686;16.584;2024-01-16T07:36:42;3.17;;;1.40;;
66575;SDS011;53428;47.686;16.584;2024-01-16T07:41:41;1.50;;;1.08;;
66575;SDS011;53428;47.686;16.584;2024-01-16T07:46:41;4.00;;;2.28;;
66575;SDS011;53428;47.686;16.584;2024-01-16T07:51:40;3.72;;;1.10;;
66575;SDS011;53428;47.686;16.584;2024-01-16T07:56:39;2.05;;;1.00;;
66575;SDS011;53428;47.686;16.584;2024-01-16T08:01:39;1.73;;;0.93;;
66575;SDS011;53428;47.686;16.584;2024-01-16T08:06:38;2.50;;;1.73;;
66575;SDS011;53428;47.686;16.584;2024-01-16T08:11:38;1.75;;;1.33;;
66575;SDS011;53428;47.686;16.584;2024-01-16T08:16:38;2.10;;;1.33;;
66575;SDS011;53428;47.686;16.584;2024-01-16T08:21:37;2.97;;;1.20;;
66575;SDS011;53428;47.686;16.584;2024-01-16T08:26:37;3.10;;;1.67;;
66575;SDS011;53428;47.686;16.584;2024-01-16T08:31:36;16.52;;;3.38;;
66575;SDS011;53428;47.686;16.584;2024-01-16T08:36:36;14.40;;;3.83;;
66575;SDS011;53428;47.686;16.584;2024-01-16T08:41:36;1.17;;;0.70;;
66575;SDS011;53428;47.686;16.584;2024-01-16T08:46:35;2.75;;;1.63;;
66575;SDS011;53428;47.686;16.584;2024-01-16T08:51:35;1.65;;;0.93;;
66575;SDS011;53428;47.686;16.584;2024-01-16T08:56:34;3.17;;;0.77;;
66575;SDS011;53428;47.686;16.584;2024-01-16T09:01:33;5.15;;;2.40;;
66575;SDS011;53428;47.686;16.584;2024-01-16T09:06:33;10.23;;;3.40;;
66575;SDS011;53428;47.686;16.584;2024-01-16T09:11:32;12.68;;;1.75;;
66575;SDS011;53428;47.686;16.584;2024-01-16T09:16:32;0.98;;;0.75;;
66575;SDS011;53428;47.686;16.584;2024-01-16T09:21:31;2.65;;;0.85;;
66575;SDS011;53428;47.686;16.584;2024-01-16T09:26:31;4.32;;;1.50;;
66575;SDS011;53428;47.686;16.584;2024-01-16T09:31:30;2.42;;;1.20;;
66575;SDS011;53428;47.686;16.584;2024-01-16T09:36:29;9.60;;;2.50;;
66575;SDS011;53428;47.686;16.584;2024-01-16T09:41:29;13.65;;;2.30;;
66575;SDS011;53428;47.686;16.584;2024-01-16T09:46:31;6.00;;;1.52;;
66575;SDS011;53428;47.686;16.584;2024-01-16T09:51:33;0.85;;;0.70;;
66575;SDS011;53428;47.686;16.584;2024-01-16T09:56:32;2.53;;;1.30;;
66575;SDS011;53428;47.686;16.584;2024-01-16T10:01:35;7.10;;;1.75;;
66575;SDS011;53428;47.686;16.584;2024-01-16T10:06:36;2.15;;;1.20;;
66575;SDS011;53428;47.686;16.584;2024-01-16T10:11:37;1.17;;;0.90;;
66575;SDS011;53428;47.686;16.584;2024-01-16T10:22:02;3.22;;;0.98;;
66575;SDS011;53428;47.686;16.584;2024-01-16T10:27:03;4.75;;;1.30;;
66575;SDS011;53428;47.686;16.584;2024-01-16T10:32:03;3.92;;;1.25;;
66575;SDS011;53428;47.686;16.584;2024-01-16T10:37:07;0.73;;;0.47;;
66575;SDS011;53428;47.686;16.584;2024-01-16T10:42:06;2.60;;;1.13;;
66575;SDS011;53428;47.686;16.584;2024-01-16T10:47:12;3.17;;;0.93;;
66575;SDS011;53428;47.686;16.584;2024-01-16T10:52:11;4.10;;;0.77;;
66575;SDS011;53428;47.686;16.584;2024-01-16T10:57:13;1.48;;;1.00;;
66575;SDS011;53428;47.686;16.584;2024-01-16T11:02:12;3.65;;;0.80;;
66575;SDS011;53428;47.686;16.584;2024-01-16T11:07:15;3.65;;;0.93;;
66575;SDS011;53428;47.686;16.584;2024-01-16T11:12:16;2.58;;;0.52;;
66575;SDS011;53428;47.686;16.584;2024-01-16T11:17:21;15.90;;;0.98;;
66575;SDS011;53428;47.686;16.584;2024-01-16T11:22:22;4.25;;;0.63;;
66575;SDS011;53428;47.686;16.584;2024-01-16T11:27:24;2.53;;;0.55;;
66575;SDS011;53428;47.686;16.584;2024-01-16T11:32:39;3.20;;;0.90;;
66575;SDS011;53428;47.686;16.584;2024-01-16T11:37:41;2.25;;;1.08;;
66575;SDS011;53428;47.686;16.584;2024-01-16T11:42:44;1.35;;;0.52;;
66575;SDS011;53428;47.686;16.584;2024-01-16T11:48:02;1.05;;;0.90;;
66575;SDS011;53428;47.686;16.584;2024-01-16T11:53:10;1.85;;;0.90;;
66575;SDS011;53428;47.686;16.584;2024-01-16T12:03:14;0.90;;;0.90;;
66575;SDS011;53428;47.686;16.584;2024-01-16T12:08:21;3.60;;;0.60;;
66575;SDS011;53428;47.686;16.584;2024-01-16T12:13:21;0.65;;;0.60;;
66575;SDS011;53428;47.686;16.584;2024-01-16T12:18:20;2.60;;;0.60;;
66575;SDS011;53428;47.686;16.584;2024-01-16T12:23:20;1.65;;;0.55;;
66575;SDS011;53428;47.686;16.584;2024-01-16T12:28:21;4.78;;;1.00;;
66575;SDS011;53428;47.686;16.584;2024-01-16T12:33:23;1.17;;;0.50;;
66575;SDS011;53428;47.686;16.584;2024-01-16T12:38:23;1.58;;;0.80;;
66575;SDS011;53428;47.686;16.584;2024-01-16T12:43:22;3.97;;;0.80;;
66575;SDS011;53428;47.686;16.584;2024-01-16T12:48:22;4.22;;;2.65;;
66575;SDS011;53428;47.686;16.584;2024-01-16T12:53:22;1.13;;;0.82;;
66575;SDS011;53428;47.686;16.584;2024-01-16T12:58:23;3.00;;;1.00;;
66575;SDS011;53428;47.686;16.584;2024-01-16T13:03:26;2.15;;;1.17;;
66575;SDS011;53428;47.686;16.584;2024-01-16T13:08:25;3.97;;;1.73;;
66575;SDS011;53428;47.686;16.584;2024-01-16T13:13:25;2.10;;;1.00;;
66575;SDS011;53428;47.686;16.584;2024-01-16T13:18:26;7.93;;;1.88;;
66575;SDS011;53428;47.686;16.584;2024-01-16T13:23:27;3.05;;;1.98;;
66575;SDS011;53428;47.686;16.584;2024-01-16T13:28:27;5.50;;;1.25;;
66575;SDS011;53428;47.686;16.584;2024-01-16T13:33:27;10.13;;;1.30;;
66575;SDS011;53428;47.686;16.584;2024-01-16T13:38:26;8.88;;;1.63;;
66575;SDS011;53428;47.686;16.584;2024-01-16T13:43:26;7.18;;;2.55;;
66575;SDS011;53428;47.686;16.584;2024-01-16T13:48:25;4.40;;;1.80;;
66575;SDS011;53428;47.686;16.584;2024-01-16T13:53:24;9.13;;;5.07;;
66575;SDS011;53428;47.686;16.584;2024-01-16T13:58:24;6.93;;;2.10;;
66575;SDS011;53428;47.686;16.584;2024-01-16T14:03:23;12.18;;;3.20;;
66575;SDS011;53428;47.686;16.584;2024-01-16T14:08:23;6.30;;;2.33;;
66575;SDS011;53428;47.686;16.584;2024-01-16T14:13:23;7.13;;;1.90;;
66575;SDS011;53428;47.686;16.584;2024-01-16T14:18:22;4.47;;;2.30;;
66575;SDS011;53428;47.686;16.584;2024-01-16T14:23:21;12.68;;;2.20;;
66575;SDS011;53428;47.686;16.584;2024-01-16T14:28:21;9.82;;;2.58;;
66575;SDS011;53428;47.686;16.584;2024-01-16T14:33:24;8.45;;;2.60;;
66575;SDS011;53428;47.686;16.584;2024-01-16T14:38:24;8.30;;;3.42;;
66575;SDS011;53428;47.686;16.584;2024-01-16T14:43:23;10.88;;;3.53;;
66575;SDS011;53428;47.686;16.584;2024-01-16T14:48:23;5.70;;;2.97;;
66575;SDS011;53428;47.686;16.584;2024-01-16T14:53:22;8.68;;;4.00;;
66575;SDS011;53428;47.686;16.584;2024-01-16T14:58:23;8.80;;;3.55;;
66575;SDS011;53428;47.686;16.584;2024-01-16T15:03:23;10.52;;;2.95;;
66575;SDS011;53428;47.686;16.584;2024-01-16T15:08:22;13.50;;;6.10;;
66575;SDS011;53428;47.686;16.584;2024-01-16T15:13:22;15.63;;;5.13;;
66575;SDS011;53428;47.686;16.584;2024-01-16T15:18:22;10.18;;;5.00;;
66575;SDS011;53428;47.686;16.584;2024-01-16T15:23:21;15.82;;;6.18;;
66575;SDS011;53428;47.686;16.584;2024-01-16T15:28:21;19.25;;;8.68;;
66575;SDS011;53428;47.686;16.584;2024-01-16T15:33:22;21.77;;;9.15;;
66575;SDS011;53428;47.686;16.584;2024-01-16T15:38:22;24.40;;;8.20;;
66575;SDS011;53428;47.686;16.584;2024-01-16T15:43:22;18.00;;;7.15;;
66575;SDS011;53428;47.686;16.584;2024-01-16T15:48:22;22.98;;;7.90;;
66575;SDS011;53428;47.686;16.584;2024-01-16T15:53:21;20.30;;;7.72;;
66575;SDS011;53428;47.686;16.584;2024-01-16T15:58:20;28.25;;;10.13;;
66575;SDS011;53428;47.686;16.584;2024-01-16T16:03:20;23.55;;;12.88;;
66575;SDS011;53428;47.686;16.584;2024-01-16T16:08:20;24.70;;;9.05;;
66575;SDS011;53428;47.686;16.584;2024-01-16T16:13:20;19.00;;;8.63;;
66575;SDS011;53428;47.686;16.584;2024-01-16T16:18:19;30.98;;;11.07;;
66575;SDS011;53428;47.686;16.584;2024-01-16T16:23:19;41.05;;;18.98;;
66575;SDS011;53428;47.686;16.584;2024-01-16T16:28:18;85.95;;;34.60;;
66575;SDS011;53428;47.686;16.584;2024-01-16T16:33:18;105.30;;;34.95;;
66575;SDS011;53428;47.686;16.584;2024-01-16T16:38:17;84.78;;;31.77;;
66575;SDS011;53428;47.686;16.584;2024-01-16T16:43:17;68.80;;;23.00;;
66575;SDS011;53428;47.686;16.584;2024-01-16T16:48:17;60.55;;;21.10;;
66575;SDS011;53428;47.686;16.584;2024-01-16T16:53:16;41.35;;;16.17;;
66575;SDS011;53428;47.686;16.584;2024-01-16T16:58:16;45.90;;;19.60;;
66575;SDS011;53428;47.686;16.584;2024-01-16T17:03:15;59.67;;;18.85;;
66575;SDS011;53428;47.686;16.584;2024-01-16T17:08:15;58.28;;;22.33;;
66575;SDS011;53428;47.686;16.584;2024-01-16T17:13:15;51.13;;;21.10;;
66575;SDS011;53428;47.686;16.584;2024-01-16T17:18:15;41.08;;;16.92;;
66575;SDS011;53428;47.686;16.584;2024-01-16T17:23:17;58.03;;;23.50;;
66575;SDS011;53428;47.686;16.584;2024-01-16T17:28:16;51.58;;;21.23;;
66575;SDS011;53428;47.686;16.584;2024-01-16T17:33:15;56.20;;;24.83;;
66575;SDS011;53428;47.686;16.584;2024-01-16T17:38:15;45.60;;;23.00;;
66575;SDS011;53428;47.686;16.584;2024-01-16T17:43:17;52.42;;;22.63;;
66575;SDS011;53428;47.686;16.584;2024-01-16T17:48:17;45.78;;;21.67;;
66575;SDS011;53428;47.686;16.584;2024-01-16T17:53:17;48.83;;;19.20;;
66575;SDS011;53428;47.686;16.584;2024-01-16T17:58:16;53.10;;;20.33;;
66575;SDS011;53428;47.686;16.584;2024-01-16T18:03:20;42.70;;;20.70;;
66575;SDS011;53428;47.686;16.584;2024-01-16T18:08:19;55.20;;;22.67;;
66575;SDS011;53428;47.686;16.584;2024-01-16T18:13:21;48.47;;;20.23;;
66575;SDS011;53428;47.686;16.584;2024-01-16T18:18:20;48.08;;;21.30;;
66575;SDS011;53428;47.686;16.584;2024-01-16T18:23:20;52.85;;;19.48;;
66575;SDS011;53428;47.686;16.584;2024-01-16T18:28:19;51.63;;;20.08;;
66575;SDS011;53428;47.686;16.584;2024-01-16T18:33:19;62.80;;;24.23;;
66575;SDS011;53428;47.686;16.584;2024-01-16T18:38:18;91.38;;;32.53;;
66575;SDS011;53428;47.686;16.584;2024-01-16T18:43:18;47.28;;;19.13;;
66575;SDS011;53428;47.686;16.584;2024-01-16T18:48:17;25.75;;;9.93;;
66575;SDS011;53428;47.686;16.584;2024-01-16T18:53:17;21.40;;;10.02;;
66575;SDS011;53428;47.686;16.584;2024-01-16T18:58:19;19.67;;;10.05;;
66575;SDS011;53428;47.686;16.584;2024-01-16T19:03:19;22.10;;;11.75;;
66575;SDS011;53428;47.686;16.584;2024-01-16T19:08:18;24.73;;;11.55;;
66575;SDS011;53428;47.686;16.584;2024-01-16T19:13:22;23.75;;;12.13;;
66575;SDS011;53428;47.686;16.584;2024-01-16T19:18:22;24.10;;;10.65;;
66575;SDS011;53428;47.686;16.584;2024-01-16T19:23:21;28.38;;;12.63;;
66575;SDS011;53428;47.686;16.584;2024-01-16T19:28:20;22.25;;;12.30;;
66575;SDS011;53428;47.686;16.584;2024-01-16T19:33:20;25.55;;;12.32;;
66575;SDS011;53428;47.686;16.584;2024-01-16T19:38:22;28.55;;;13.70;;
66575;SDS011;53428;47.686;16.584;2024-01-16T19:43:21;32.75;;;13.45;;
66575;SDS011;53428;47.686;16.584;2024-01-16T19:48:21;27.08;;;11.90;;
66575;SDS011;53428;47.686;16.584;2024-01-16T19:53:21;33.83;;;15.43;;
66575;SDS011;53428;47.686;16.584;2024-01-16T19:58:20;34.78;;;15.15;;
66575;SDS011;53428;47.686;16.584;2024-01-16T20:03:19;30.98;;;14.85;;
66575;SDS011;53428;47.686;16.584;2024-01-16T20:08:19;36.38;;;15.70;;
66575;SDS011;53428;47.686;16.584;2024-01-16T20:13:21;37.72;;;15.45;;
66575;SDS011;53428;47.686;16.584;2024-01-16T20:18:20;31.10;;;14.98;;
66575;SDS011;53428;47.686;16.584;2024-01-16T20:23:20;77.82;;;25.95;;
66575;SDS011;53428;47.686;16.584;2024-01-16T20:28:19;96.80;;;30.85;;
66575;SDS011;53428;47.686;16.584;2024-01-16T20:33:18;47.25;;;18.20;;
66575;SDS011;53428;47.686;16.584;2024-01-16T20:38:20;33.85;;;17.75;;
66575;SDS011;53428;47.686;16.584;2024-01-16T20:43:19;30.48;;;15.98;;
66575;SDS011;53428;47.686;16.584;2024-01-16T20:48:19;34.10;;;15.32;;
66575;SDS011;53428;47.686;16.584;2024-01-16T20:53:18;38.38;;;17.95;;
66575;SDS011;53428;47.686;16.584;2024-01-16T20:58:19;37.72;;;18.15;;
66575;SDS011;53428;47.686;16.584;2024-01-16T21:03:19;36.85;;;18.55;;
66575;SDS011;53428;47.686;16.584;2024-01-16T21:08:19;39.17;;;18.48;;
66575;SDS011;53428;47.686;16.584;2024-01-16T21:13:18;35.65;;;18.65;;
66575;SDS011;53428;47.686;16.584;2024-01-16T21:18:17;44.22;;;18.70;;
66575;SDS011;53428;47.686;16.584;2024-01-16T21:23:17;52.33;;;21.20;;
66575;SDS011;53428;47.686;16.584;2024-01-16T21:28:16;46.00;;;18.60;;
66575;SDS011;53428;47.686;16.584;2024-01-16T21:33:15;47.88;;;19.60;;
66575;SDS011;53428;47.686;16.584;2024-01-16T21:38:15;36.03;;;18.23;;
66575;SDS011;53428;47.686;16.584;2024-01-16T21:43:14;39.50;;;19.05;;
66575;SDS011;53428;47.686;16.584;2024-01-16T21:48:13;34.15;;;17.60;;
66575;SDS011;53428;47.686;16.584;2024-01-16T21:53:12;37.42;;;16.95;;
66575;SDS011;53428;47.686;16.584;2024-01-16T21:58:13;33.40;;;17.55;;
66575;SDS011;53428;47.686;16.584;2024-01-16T22:03:13;36.00;;;18.70;;
66575;SDS011;53428;47.686;16.584;2024-01-16T22:08:13;34.33;;;17.30;;
66575;SDS011;53428;47.686;16.584;2024-01-16T22:13:12;35.97;;;15.90;;
66575;SDS011;53428;47.686;16.584;2024-01-16T22:18:11;31.35;;;15.77;;
66575;SDS011;53428;47.686;16.584;2024-01-16T22:23:11;33.58;;;15.68;;
66575;SDS011;53428;47.686;16.584;2024-01-16T22:28:11;35.00;;;18.33;;
66575;SDS011;53428;47.686;16.584;2024-01-16T22:33:11;30.00;;;13.95;;
66575;SDS011;53428;47.686;16.584;2024-01-16T22:38:13;31.70;;;14.90;;
66575;SDS011;53428;47.686;16.584;2024-01-16T22:43:12;34.85;;;14.82;;
66575;SDS011;53428;47.686;16.584;2024-01-16T22:48:11;31.13;;;14.95;;
66575;SDS011;53428;47.686;16.584;2024-01-16T22:53:11;31.08;;;14.60;;
66575;SDS011;53428;47.686;16.584;2024-01-16T22:58:11;32.83;;;17.35;;
66575;SDS011;53428;47.686;16.584;2024-01-16T23:03:10;37.63;;;17.48;;
66575;SDS011;53428;47.686;16.584;2024-01-16T23:08:11;40.83;;;16.70;;
66575;SDS011;53428;47.686;16.584;2024-01-16T23:13:10;33.28;;;17.38;;
66575;SDS011;53428;47.686;16.584;2024-01-16T23:18:09;32.83;;;15.43;;
66575;SDS011;53428;47.686;16.584;2024-01-16T23:23:09;37.20;;;16.95;;
66575;SDS011;53428;47.686;16.584;2024-01-16T23:28:10;42.13;;;15.07;;
66575;SDS011;53428;47.686;16.584;2024-01-16T23:33:11;43.90;;;16.42;;
66575;SDS011;53428;47.686;16.584;2024-01-16T23:38:10;30.45;;;14.60;;
66575;SDS011;53428;47.686;16.584;2024-01-16T23:43:12;28.17;;;14.50;;
66575;SDS011;53428;47.686;16.584;2024-01-16T23:48:11;24.17;;;12.35;;
66575;SDS011;53428;47.686;16.584;2024-01-16T23:53:11;27.50;;;11.70;;
66575;SDS011;53428;47.686;16.584;2024-01-16T23:58:11;27.42;;;11.77;;
